Time;durP1;ratioP1;P1;durP2;ratioP2;P2;SDS_P1;SDS_P2;PMS_P1;PMS_P2;Temp;Humidity;BMP_temperature;BMP_pressure;BME280_temperature;BME280_humidity;BME280_pressure;Samples;Min_cycle;Max_cycle;Signal;HPM_P1;HPM_P2
2021/11/17 02:26:25;;;;;;;36.75;14.75;;;8.20;96.40;;;;;;4933064;29;20099;-71
2021/11/17 02:29:33;;;;;;;36.92;16.10;;;8.20;96.70;;;;;;4932929;29;20032;-70
2021/11/17 02:32:16;;;;;;;33.25;14.77;;;8.20;96.60;;;;;;4932725;29;20032;-70
2021/11/17 02:35:27;;;;;;;35.65;15.05;;;8.10;96.70;;;;;;4917801;29;20039;-70
2021/11/17 02:38:27;;;;;;;35.35;14.48;;;8.00;96.70;;;;;;4895995;29;20486;-71
2021/11/17 02:41:11;;;;;;;34.05;14.68;;;8.00;96.80;;;;;;4899957;29;20067;-70
2021/11/17 02:44:02;;;;;;;32.10;14.55;;;8.10;96.80;;;;;;4914304;29;20407;-70
2021/11/17 02:46:33;;;;;;;34.20;15.27;;;8.10;96.70;;;;;;4917616;29;20033;-71
2021/11/17 02:49:11;;;;;;;27.20;13.45;;;7.90;96.40;;;;;;4917671;29;20029;-71
2021/11/17 02:51:52;;;;;;;35.92;14.88;;;8.00;96.40;;;;;;4900962;29;20234;-72
2021/11/17 02:54:45;;;;;;;27.98;13.85;;;8.10;96.50;;;;;;4917538;29;20036;-71
2021/11/17 02:57:33;;;;;;;31.75;14.23;;;8.20;96.50;;;;;;4900700;29;20031;-71
2021/11/17 03:00:14;;;;;;;31.23;13.73;;;8.20;96.20;;;;;;4912113;29;20037;-70
2021/11/17 03:02:58;;;;;;;29.67;13.27;;;8.10;96.10;;;;;;4917519;29;20062;-70
2021/11/17 03:05:51;;;;;;;26.95;12.40;;;7.90;95.90;;;;;;4886136;29;20040;-70
2021/11/17 03:08:38;;;;;;;31.17;13.65;;;8.10;96.20;;;;;;4900570;29;20048;-70
2021/11/17 03:11:29;;;;;;;26.80;12.98;;;8.00;95.90;;;;;;4917192;29;20107;-71
2021/11/17 03:14:29;;;;;;;25.63;12.50;;;8.00;95.80;;;;;;4900548;29;20122;-71
2021/11/17 03:17:24;;;;;;;24.58;12.05;;;8.00;95.90;;;;;;4917043;29;20032;-71
2021/11/17 03:20:26;;;;;;;24.13;10.63;;;8.00;95.70;;;;;;4917047;29;20440;-70
2021/11/17 03:23:03;;;;;;;22.10;10.65;;;7.80;95.60;;;;;;4917170;29;20037;-71
2021/11/17 03:25:44;;;;;;;27.92;11.02;;;7.80;95.80;;;;;;4916866;29;20602;-71
2021/11/17 03:28:25;;;;;;;24.27;11.48;;;7.90;95.80;;;;;;4916668;29;20040;-71
2021/11/17 03:31:15;;;;;;;24.75;11.43;;;7.70;96.10;;;;;;4916733;29;20036;-70
2021/11/17 03:33:50;;;;;;;25.35;11.63;;;7.70;96.10;;;;;;4916889;29;20055;-70
2021/11/17 03:36:34;;;;;;;23.85;11.27;;;7.80;96.10;;;;;;4916599;29;20432;-70
2021/11/17 03:39:33;;;;;;;26.50;11.77;;;7.80;96.00;;;;;;4916759;29;20028;-70
2021/11/17 03:42:14;;;;;;;24.63;10.30;;;7.90;96.00;;;;;;4916623;29;20185;-71
2021/11/17 03:45:04;;;;;;;32.38;12.65;;;7.80;96.00;;;;;;4900310;29;20103;-70
2021/11/17 03:47:40;;;;;;;25.35;11.45;;;7.70;96.20;;;;;;4916724;29;20046;-71
2021/11/17 03:50:32;;;;;;;30.52;12.43;;;7.70;96.40;;;;;;4916625;29;20044;-71
2021/11/17 03:53:24;;;;;;;29.15;11.32;;;7.80;96.40;;;;;;4915946;29;20032;-70
2021/11/17 03:56:26;;;;;;;30.33;12.60;;;7.70;96.20;;;;;;4901526;29;20135;-71
2021/11/17 03:59:15;;;;;;;30.55;12.13;;;7.80;96.40;;;;;;4916280;29;20041;-71
2021/11/17 04:01:46;;;;;;;24.67;11.45;;;7.80;96.30;;;;;;4916542;29;20039;-71
2021/11/17 04:04:33;;;;;;;28.02;11.93;;;7.80;96.30;;;;;;4916187;29;20497;-71
2021/11/17 04:07:24;;;;;;;27.40;11.90;;;7.80;96.30;;;;;;4899494;29;20379;-70
2021/11/17 04:10:08;;;;;;;26.45;11.43;;;7.80;96.30;;;;;;4916188;29;20040;-70
2021/11/17 04:12:52;;;;;;;24.38;10.43;;;7.50;96.60;;;;;;4915991;29;20028;-70
2021/11/17 04:15:43;;;;;;;27.67;10.95;;;7.50;96.70;;;;;;4898936;29;20123;-71
2021/11/17 04:18:21;;;;;;;21.90;10.43;;;7.50;96.60;;;;;;4915793;29;20037;-70
2021/11/17 04:21:12;;;;;;;24.00;11.02;;;7.50;96.60;;;;;;4915755;29;20095;-71
2021/11/17 04:24:09;;;;;;;25.35;11.02;;;7.70;96.70;;;;;;4916364;29;20463;-71
2021/11/17 04:26:49;;;;;;;20.95;9.98;;;7.70;96.40;;;;;;4916041;29;20036;-71
2021/11/17 04:29:46;;;;;;;22.20;10.18;;;7.50;96.50;;;;;;4899689;29;20103;-70
2021/11/17 04:32:36;;;;;;;23.15;10.45;;;7.40;96.60;;;;;;4916111;29;20051;-71
2021/11/17 04:35:29;;;;;;;27.77;11.57;;;7.50;96.80;;;;;;4898421;29;20029;-70
2021/11/17 04:38:29;;;;;;;26.83;10.55;;;7.50;96.80;;;;;;4901741;29;20036;-70
2021/11/17 04:41:32;;;;;;;25.52;9.73;;;7.40;96.90;;;;;;4898544;29;20040;-70
2021/11/17 04:44:11;;;;;;;24.13;9.43;;;7.30;97.10;;;;;;4915422;29;20044;-69
2021/11/17 04:46:46;;;;;;;23.17;9.60;;;7.40;97.20;;;;;;4898793;29;20076;-70
2021/11/17 04:49:30;;;;;;;24.13;10.95;;;7.40;97.10;;;;;;4915432;29;20025;-70
2021/11/17 04:52:04;;;;;;;19.70;8.60;;;7.40;97.10;;;;;;4915536;29;20028;-70
2021/11/17 04:54:47;;;;;;;23.88;9.88;;;7.50;97.20;;;;;;4915365;29;20366;-69
2021/11/17 04:57:34;;;;;;;24.90;9.73;;;7.50;97.00;;;;;;4915153;29;20068;-71
2021/11/17 05:00:11;;;;;;;25.70;9.80;;;7.50;97.10;;;;;;4915121;29;20462;-70
2021/11/17 05:02:52;;;;;;;23.42;9.77;;;7.50;97.00;;;;;;4915424;29;20047;-70
2021/11/17 05:05:26;;;;;;;28.60;10.32;;;7.50;97.00;;;;;;4915241;29;20418;-70
2021/11/17 05:08:13;;;;;;;22.98;9.68;;;7.60;96.90;;;;;;4914833;29;20047;-70
2021/11/17 05:10:44;;;;;;;28.25;10.60;;;7.60;96.80;;;;;;4915198;29;20032;-70
2021/11/17 05:13:33;;;;;;;25.30;9.80;;;7.60;97.20;;;;;;4915151;29;20462;-70
2021/11/17 05:16:32;;;;;;;21.17;9.38;;;7.70;96.90;;;;;;4915076;29;20131;-70
2021/11/17 05:19:12;;;;;;;25.85;9.60;;;7.70;96.70;;;;;;4914961;29;20494;-71
2021/11/17 05:21:38;;;;;;;24.40;9.45;;;7.60;96.70;;;;;;4914925;29;20066;-69
2021/11/17 05:24:27;;;;;;;24.70;10.23;;;7.60;96.90;;;;;;4914594;29;20111;-70
2021/11/17 05:27:40;;;;;;;21.30;8.68;;;7.60;96.80;;;;;;4914592;29;20477;-70
2021/11/17 05:30:43;;;;;;;23.25;9.60;;;7.60;96.80;;;;;;4875135;29;20037;-70
2021/11/17 05:33:33;;;;;;;19.83;8.63;;;7.50;96.90;;;;;;4854702;29;20044;-71
2021/11/17 05:36:25;;;;;;;23.08;10.05;;;7.70;97.20;;;;;;4896088;29;20458;-71
2021/11/17 05:39:20;;;;;;;24.75;9.65;;;7.80;96.80;;;;;;4914485;29;20039;-71
2021/11/17 05:42:07;;;;;;;24.27;10.13;;;7.80;96.80;;;;;;4900949;29;20031;-70
2021/11/17 05:44:53;;;;;;;21.90;9.70;;;7.90;96.80;;;;;;4915068;29;20025;-70
2021/11/17 05:47:38;;;;;;;22.63;9.20;;;7.90;96.60;;;;;;4914080;29;20067;-71
2021/11/17 05:50:13;;;;;;;22.50;10.10;;;7.90;96.60;;;;;;4897759;29;20025;-70
2021/11/17 05:53:00;;;;;;;22.60;10.00;;;7.80;96.80;;;;;;4914475;29;20051;-71
2021/11/17 05:55:34;;;;;;;26.17;10.43;;;7.80;96.80;;;;;;4914316;29;20039;-71
2021/11/17 05:58:18;;;;;;;24.77;10.95;;;7.80;96.80;;;;;;4914312;29;20461;-71
2021/11/17 06:01:13;;;;;;;21.73;10.13;;;7.90;96.80;;;;;;4914210;29;20047;-71
2021/11/17 06:04:01;;;;;;;25.45;11.15;;;7.90;96.70;;;;;;4914054;29;20040;-71
2021/11/17 06:06:26;;;;;;;26.95;9.63;;;7.90;96.80;;;;;;4896825;29;20577;-70
2021/11/17 06:08:55;;;;;;;24.08;9.60;;;7.80;96.70;;;;;;4897560;29;20044;-70
2021/11/17 06:11:25;;;;;;;25.88;9.52;;;7.90;96.90;;;;;;4915277;29;20414;-73
2021/11/17 06:13:51;;;;;;;21.40;9.48;;;7.80;96.90;;;;;;4913481;29;20482;-70
2021/11/17 06:16:17;;;;;;;19.08;9.00;;;7.90;96.60;;;;;;4914523;29;20040;-72
2021/11/17 06:18:43;;;;;;;29.48;9.02;;;7.90;96.50;;;;;;4915086;29;20040;-70
2021/11/17 06:21:12;;;;;;;25.58;8.75;;;7.80;96.50;;;;;;4918168;29;20127;-72
2021/11/17 06:23:47;;;;;;;18.63;9.02;;;7.90;96.70;;;;;;4918911;29;20042;-72
2021/11/17 06:26:19;;;;;;;17.63;9.00;;;8.00;96.70;;;;;;4918485;29;20435;-71
2021/11/17 06:28:53;;;;;;;25.33;10.35;;;8.00;96.50;;;;;;4918394;29;20036;-70
2021/11/17 06:31:20;;;;;;;20.05;9.27;;;8.00;96.40;;;;;;4918212;29;20040;-71
2021/11/17 06:33:45;;;;;;;22.35;9.52;;;7.90;96.50;;;;;;4918238;29;20064;-71
2021/11/17 06:36:11;;;;;;;22.05;9.75;;;8.00;96.70;;;;;;4918184;29;20060;-71
2021/11/17 06:38:36;;;;;;;21.02;9.57;;;8.00;96.50;;;;;;4917572;29;20032;-71
2021/11/17 06:41:03;;;;;;;21.85;8.57;;;8.10;96.50;;;;;;4917878;29;20036;-70
2021/11/17 06:43:30;;;;;;;21.42;9.30;;;8.00;96.80;;;;;;4918007;29;20043;-71
2021/11/17 06:45:58;;;;;;;23.20;9.63;;;8.10;96.80;;;;;;4917665;29;20032;-71
2021/11/17 06:48:26;;;;;;;23.58;9.45;;;8.00;96.90;;;;;;4917843;29;20462;-70
2021/11/17 06:50:53;;;;;;;20.45;8.52;;;8.20;97.00;;;;;;4917753;29;20020;-69
2021/11/17 06:53:20;;;;;;;24.25;9.57;;;8.10;97.10;;;;;;4918302;29;20048;-69
2021/11/17 06:55:46;;;;;;;19.02;8.73;;;8.10;97.50;;;;;;4917520;29;20084;-70
2021/11/17 06:58:12;;;;;;;22.35;9.38;;;8.10;97.40;;;;;;4917710;29;20058;-69
2021/11/17 07:00:40;;;;;;;19.05;9.43;;;8.10;97.50;;;;;;4917181;29;20292;-70
2021/11/17 07:03:06;;;;;;;20.70;8.98;;;8.20;97.50;;;;;;4916595;29;20041;-69
2021/11/17 07:05:31;;;;;;;19.67;8.65;;;8.20;97.50;;;;;;4916775;29;20442;-70
2021/11/17 07:08:00;;;;;;;22.65;9.60;;;8.10;97.50;;;;;;4916233;29;20040;-69
2021/11/17 07:10:29;;;;;;;25.98;10.15;;;8.10;97.20;;;;;;4916172;29;20134;-70
2021/11/17 07:12:55;;;;;;;20.65;9.40;;;8.10;97.50;;;;;;4916400;29;20032;-69
2021/11/17 07:15:22;;;;;;;27.23;10.55;;;8.10;97.40;;;;;;4916065;29;20025;-70
2021/11/17 07:17:48;;;;;;;21.85;9.80;;;8.00;97.40;;;;;;4916034;29;20517;-70
2021/11/17 07:20:15;;;;;;;19.33;9.52;;;8.00;97.30;;;;;;4916292;29;20152;-69
2021/11/17 07:22:41;;;;;;;22.13;9.70;;;8.10;97.40;;;;;;4915909;29;20039;-70
2021/11/17 07:25:09;;;;;;;24.40;10.10;;;8.00;97.30;;;;;;4915857;29;20541;-70
2021/11/17 07:27:36;;;;;;;23.75;10.32;;;8.00;97.40;;;;;;4915769;29;20043;-70
2021/11/17 07:30:05;;;;;;;21.08;9.07;;;8.10;97.40;;;;;;4915735;29;20040;-68
2021/11/17 07:32:31;;;;;;;20.58;9.68;;;8.20;97.40;;;;;;4916122;29;20024;-70
2021/11/17 07:34:56;;;;;;;28.23;9.95;;;8.20;97.40;;;;;;4915858;29;20123;-71
2021/11/17 07:37:23;;;;;;;19.30;8.95;;;8.30;97.30;;;;;;4915710;29;20116;-71
2021/11/17 07:39:48;;;;;;;20.48;10.27;;;8.30;97.20;;;;;;4914740;29;20032;-71
2021/11/17 07:42:14;;;;;;;21.00;9.27;;;8.20;97.20;;;;;;4915848;29;20447;-71
2021/11/17 07:44:41;;;;;;;23.27;10.30;;;8.30;97.20;;;;;;4916205;29;20038;-71
2021/11/17 07:47:07;;;;;;;24.67;11.35;;;8.20;97.20;;;;;;4915860;29;20044;-70
2021/11/17 07:49:33;;;;;;;18.13;8.48;;;8.10;97.10;;;;;;4915629;29;20439;-71
2021/11/17 07:51:59;;;;;;;22.67;9.38;;;8.10;97.00;;;;;;4914522;29;20115;-70
2021/11/17 07:54:26;;;;;;;18.65;9.02;;;8.20;97.20;;;;;;4915717;29;20632;-70
2021/11/17 07:56:53;;;;;;;23.43;9.87;;;8.10;97.10;;;;;;4915536;29;20024;-70
2021/11/17 07:59:22;;;;;;;26.08;8.82;;;8.10;97.10;;;;;;4915892;29;20028;-71
2021/11/17 08:01:49;;;;;;;20.48;9.20;;;8.10;97.20;;;;;;4915412;29;20080;-70
2021/11/17 08:04:17;;;;;;;20.13;9.30;;;8.00;97.20;;;;;;4880003;29;1068662;-71
2021/11/17 08:06:44;;;;;;;22.33;10.57;;;8.00;97.20;;;;;;4916489;29;20759;-71
2021/11/17 08:09:10;;;;;;;21.50;10.65;;;8.00;97.20;;;;;;4916601;29;20093;-71
2021/11/17 08:11:39;;;;;;;24.60;11.00;;;8.00;97.30;;;;;;4916765;29;20034;-71
2021/11/17 08:14:04;;;;;;;25.38;10.75;;;8.10;97.40;;;;;;4916236;29;20036;-71
2021/11/17 08:16:30;;;;;;;26.80;11.65;;;8.10;97.30;;;;;;4916527;29;20431;-71
2021/11/17 08:18:56;;;;;;;23.83;11.63;;;8.20;97.30;;;;;;4914911;29;20037;-70
2021/11/17 08:21:22;;;;;;;24.10;11.02;;;8.20;97.20;;;;;;4916315;29;20236;-70
2021/11/17 08:23:47;;;;;;;25.75;10.95;;;8.20;97.20;;;;;;4916607;29;20394;-71
2021/11/17 08:26:15;;;;;;;25.13;11.57;;;8.20;97.30;;;;;;4916575;29;20527;-71
2021/11/17 08:28:41;;;;;;;22.30;10.55;;;8.30;97.40;;;;;;4915990;29;20036;-71
2021/11/17 08:31:09;;;;;;;25.60;11.55;;;8.30;97.20;;;;;;4916127;29;20036;-70
2021/11/17 08:33:35;;;;;;;26.88;11.52;;;8.40;97.20;;;;;;4916088;29;20379;-70
2021/11/17 08:36:02;;;;;;;22.13;10.77;;;8.40;97.00;;;;;;4915069;29;20128;-72
2021/11/17 08:38:30;;;;;;;24.55;11.23;;;8.60;97.10;;;;;;4916455;29;20039;-71
2021/11/17 08:40:58;;;;;;;24.88;11.25;;;8.60;97.00;;;;;;4915665;29;20032;-71
2021/11/17 08:43:25;;;;;;;22.25;9.32;;;8.70;97.00;;;;;;4915245;29;20123;-71
2021/11/17 08:45:51;;;;;;;23.77;10.38;;;8.80;96.60;;;;;;4914569;29;20130;-69
2021/11/17 08:48:18;;;;;;;21.58;10.48;;;8.70;96.60;;;;;;4915606;29;20029;-71
2021/11/17 08:50:45;;;;;;;23.23;10.73;;;8.70;96.60;;;;;;4915805;29;20031;-70
2021/11/17 08:53:13;;;;;;;23.33;10.23;;;8.90;96.50;;;;;;4916258;29;20458;-71
2021/11/17 08:55:42;;;;;;;23.73;10.07;;;9.00;96.50;;;;;;4915325;29;20044;-71
2021/11/17 08:58:09;;;;;;;20.65;9.40;;;9.10;96.40;;;;;;4915534;29;20036;-71
2021/11/17 09:00:35;;;;;;;20.83;9.35;;;9.20;96.10;;;;;;4915676;29;20553;-71
2021/11/17 09:03:04;;;;;;;19.08;8.95;;;9.30;96.10;;;;;;4908442;29;20082;-71
2021/11/17 09:05:35;;;;;;;20.92;8.45;;;9.40;96.00;;;;;;4895909;29;20033;-71
2021/11/17 09:08:01;;;;;;;17.33;8.02;;;9.30;95.70;;;;;;4895623;29;20033;-70
2021/11/17 09:10:33;;;;;;;14.77;7.90;;;9.40;95.90;;;;;;4896438;29;20375;-70
2021/11/17 09:12:58;;;;;;;16.65;7.70;;;9.40;95.70;;;;;;4896333;29;20394;-71
2021/11/17 09:15:28;;;;;;;15.60;7.82;;;9.40;95.70;;;;;;4896538;29;20124;-70
2021/11/17 09:17:54;;;;;;;16.48;8.32;;;9.60;95.70;;;;;;4895046;29;20040;-70
2021/11/17 09:20:22;;;;;;;16.48;7.65;;;9.60;95.70;;;;;;4895672;29;20489;-70
2021/11/17 09:22:49;;;;;;;16.40;7.43;;;9.50;95.70;;;;;;4896118;29;20526;-72
2021/11/17 09:25:15;;;;;;;15.20;7.90;;;9.50;95.60;;;;;;4896189;29;20044;-71
2021/11/17 09:27:42;;;;;;;15.15;7.45;;;9.50;95.70;;;;;;4896222;29;20057;-70
2021/11/17 09:30:11;;;;;;;14.35;7.35;;;9.50;95.60;;;;;;4896084;29;20025;-71
2021/11/17 09:32:37;;;;;;;17.30;7.88;;;9.60;95.60;;;;;;4896333;29;20036;-71
2021/11/17 09:35:08;;;;;;;18.52;8.82;;;9.60;95.50;;;;;;4896385;29;20516;-71
2021/11/17 09:37:34;;;;;;;17.05;8.05;;;9.60;95.50;;;;;;4896031;29;20376;-70
2021/11/17 09:40:00;;;;;;;20.50;8.50;;;9.60;95.60;;;;;;4896040;29;20068;-70
2021/11/17 09:42:26;;;;;;;17.15;7.72;;;9.60;95.50;;;;;;4895886;29;20119;-71
2021/11/17 09:44:52;;;;;;;18.15;7.88;;;9.60;95.60;;;;;;4896037;29;20025;-71
2021/11/17 09:47:21;;;;;;;19.10;7.75;;;9.70;95.60;;;;;;4896676;29;20301;-69
2021/11/17 09:49:59;;;;;;;15.57;7.53;;;9.70;95.40;;;;;;4895874;29;20379;-69
2021/11/17 09:52:37;;;;;;;15.98;8.15;;;9.70;95.40;;;;;;4895742;29;20124;-71
2021/11/17 09:55:16;;;;;;;13.80;8.07;;;9.70;95.40;;;;;;4895716;29;20033;-70
2021/11/17 09:57:47;;;;;;;17.10;9.27;;;9.80;95.50;;;;;;4895702;29;20043;-71
2021/11/17 10:00:18;;;;;;;14.30;8.52;;;9.70;95.80;;;;;;4895783;29;20264;-71
2021/11/17 10:02:51;;;;;;;18.67;8.98;;;9.70;95.60;;;;;;4899848;29;20326;-71
2021/11/17 10:05:25;;;;;;;15.80;8.85;;;9.60;95.70;;;;;;4915210;29;20359;-72
2021/11/17 10:11:15;;;;;;;14.77;9.35;;;9.50;96.30;;;;;;4914311;29;20032;-71
2021/11/17 10:13:47;;;;;;;18.02;9.70;;;9.40;96.20;;;;;;4914378;29;20145;-69
2021/11/17 10:16:14;;;;;;;23.38;10.55;;;9.40;96.20;;;;;;4914823;29;20032;-69
2021/11/17 10:18:53;;;;;;;19.90;10.20;;;9.50;96.20;;;;;;4914418;29;20107;-71
2021/11/17 10:21:22;;;;;;;22.73;11.40;;;9.50;96.20;;;;;;4914260;29;20044;-72
2021/11/17 10:24:02;;;;;;;18.45;10.27;;;9.60;96.30;;;;;;4913992;29;20032;-71
2021/11/17 10:26:28;;;;;;;20.05;9.48;;;9.50;96.30;;;;;;4915042;29;20028;-71
2021/11/17 10:29:27;;;;;;;28.77;12.30;;;9.40;96.20;;;;;;4914305;29;20119;-71
2021/11/17 10:32:13;;;;;;;32.63;14.50;;;9.40;96.70;;;;;;4888828;29;20374;-70
2021/11/17 10:34:54;;;;;;;25.77;11.45;;;9.40;96.40;;;;;;4914248;29;20040;-71
2021/11/17 10:37:26;;;;;;;19.05;10.23;;;9.40;96.30;;;;;;4914317;29;20098;-71
2021/11/17 10:39:51;;;;;;;22.33;11.50;;;9.40;96.20;;;;;;4914219;29;20568;-70
2021/11/17 10:42:20;;;;;;;24.98;12.35;;;9.40;96.20;;;;;;4914260;29;20068;-71
2021/11/17 10:45:11;;;;;;;21.83;11.45;;;9.30;96.20;;;;;;4914048;29;20029;-71
2021/11/17 10:47:45;;;;;;;24.02;12.70;;;9.30;96.50;;;;;;4914703;29;20024;-70
2021/11/17 10:50:22;;;;;;;25.10;12.23;;;9.20;96.60;;;;;;4914376;29;20111;-72
2021/11/17 10:52:56;;;;;;;23.27;12.20;;;9.20;96.40;;;;;;4914225;29;20454;-71
2021/11/17 10:55:38;;;;;;;23.95;12.50;;;9.30;96.40;;;;;;4914160;29;20423;-72
2021/11/17 10:58:10;;;;;;;27.25;12.27;;;9.30;96.50;;;;;;4914103;29;20348;-71
2021/11/17 11:00:47;;;;;;;28.27;14.07;;;9.30;96.50;;;;;;4913954;29;20398;-71
2021/11/17 11:03:15;;;;;;;24.63;12.95;;;9.30;96.50;;;;;;4913802;29;20041;-70
2021/11/17 11:05:44;;;;;;;;;;;9.30;96.50;;;;;;4916597;29;20035;-72
2021/11/17 11:08:26;;;;;;;28.45;12.98;;;9.40;96.60;;;;;;4918047;29;19903;-70
2021/11/17 11:10:55;;;;;;;26.80;13.48;;;9.40;96.70;;;;;;4917595;29;20032;-70
2021/11/17 11:13:33;;;;;;;30.10;14.50;;;9.40;97.00;;;;;;4917459;29;20028;-69
2021/11/17 11:16:13;;;;;;;28.80;14.32;;;9.30;97.40;;;;;;4917532;29;20046;-69
2021/11/17 11:19:14;;;;;;;33.20;15.77;;;9.40;97.70;;;;;;4917337;29;20080;-68
2021/11/17 11:21:46;;;;;;;29.17;15.40;;;9.50;97.70;;;;;;4900746;29;20347;-68
2021/11/17 11:24:37;;;;;;;29.00;13.65;;;9.50;97.90;;;;;;4917145;29;20254;-69
2021/11/17 11:27:03;;;;;;;29.83;14.45;;;9.50;98.00;;;;;;4917444;29;20043;-70
2021/11/17 11:29:30;;;;;;;28.20;14.23;;;9.40;98.30;;;;;;4917583;29;20020;-69
2021/11/17 11:32:25;;;;;;;25.67;13.45;;;9.50;98.30;;;;;;4917368;29;20426;-68
2021/11/17 11:35:00;;;;;;;30.20;15.13;;;9.50;98.40;;;;;;4914565;29;20199;-68
2021/11/17 11:37:25;;;;;;;32.00;15.57;;;9.50;98.60;;;;;;4917229;29;20141;-69
2021/11/17 11:39:52;;;;;;;31.98;15.75;;;9.50;98.80;;;;;;4916908;29;20036;-70
2021/11/17 11:42:21;;;;;;;34.47;17.48;;;9.50;99.10;;;;;;4916836;29;20583;-68
2021/11/17 11:45:21;;;;;;;37.97;15.38;;;9.50;99.10;;;;;;4917180;29;20064;-68
2021/11/17 11:47:57;;;;;;;26.98;13.20;;;9.50;99.20;;;;;;4916571;29;20028;-69
2021/11/17 11:50:32;;;;;;;26.98;13.52;;;9.60;99.30;;;;;;4917188;29;20719;-68
2021/11/17 11:53:16;;;;;;;29.40;12.68;;;9.60;99.10;;;;;;4899607;29;20369;-68
2021/11/17 11:55:52;;;;;;;26.42;13.52;;;9.60;99.20;;;;;;4916741;29;20044;-69
2021/11/17 11:58:20;;;;;;;28.95;13.27;;;9.60;99.10;;;;;;4916527;29;20120;-68
2021/11/17 12:00:54;;;;;;;26.55;12.82;;;9.70;99.10;;;;;;4916642;29;20110;-68
2021/11/17 12:03:25;;;;;;;29.30;14.07;;;9.70;99.00;;;;;;4916130;29;20115;-68
2021/11/17 12:06:14;;;;;;;22.92;12.20;;;9.70;99.00;;;;;;4916361;29;20032;-69
2021/11/17 12:08:55;;;;;;;24.08;12.82;;;9.80;98.80;;;;;;4916687;29;20036;-70
2021/11/17 12:11:29;;;;;;;32.95;14.88;;;9.70;98.70;;;;;;4916257;29;20044;-69
2021/11/17 12:14:06;;;;;;;22.77;11.18;;;9.80;98.80;;;;;;4916330;29;20063;-69
2021/11/17 12:16:47;;;;;;;18.73;10.85;;;9.80;98.60;;;;;;4915028;29;20184;-69
2021/11/17 12:19:35;;;;;;;29.50;13.00;;;9.70;98.90;;;;;;4916163;29;20028;-69
2021/11/17 12:22:04;;;;;;;28.90;11.73;;;9.80;98.80;;;;;;4898518;29;20043;-68
2021/11/17 12:24:39;;;;;;;23.58;10.65;;;9.80;98.90;;;;;;4899053;29;20024;-70
2021/11/17 12:27:21;;;;;;;22.85;11.00;;;9.80;99.00;;;;;;4916035;29;20043;-67
2021/11/17 12:30:09;;;;;;;21.80;11.18;;;10.00;98.60;;;;;;4914990;29;20450;-67
2021/11/17 12:32:49;;;;;;;24.05;13.27;;;9.90;99.10;;;;;;4916268;29;20036;-68
2021/11/17 12:35:21;;;;;;;25.55;12.10;;;9.90;99.20;;;;;;4916054;29;20040;-68
2021/11/17 12:37:54;;;;;;;21.20;10.77;;;9.90;99.10;;;;;;4915717;29;20520;-69
2021/11/17 12:40:41;;;;;;;27.83;14.52;;;9.80;99.30;;;;;;4914553;29;20058;-68
2021/11/17 12:43:12;;;;;;;35.08;16.60;;;9.80;99.40;;;;;;4915668;29;20194;-69
2021/11/17 12:45:47;;;;;;;22.92;12.65;;;9.90;99.40;;;;;;4915423;29;20048;-69
2021/11/17 12:48:27;;;;;;;25.88;13.50;;;9.80;99.30;;;;;;4915576;29;20055;-69
2021/11/17 12:51:19;;;;;;;25.48;12.85;;;9.80;99.60;;;;;;4915231;29;20028;-69
2021/11/17 12:53:47;;;;;;;26.42;13.07;;;9.80;99.60;;;;;;4898318;29;20043;-68
2021/11/17 12:56:25;;;;;;;26.27;12.68;;;9.90;99.70;;;;;;4915753;29;20258;-69
2021/11/17 12:59:01;;;;;;;25.88;12.88;;;9.90;99.50;;;;;;4915128;29;20046;-69
2021/11/17 13:01:46;;;;;;;27.20;13.48;;;9.80;99.50;;;;;;4915125;29;20036;-69
2021/11/17 13:04:12;;;;;;;33.95;14.48;;;9.90;99.70;;;;;;4915016;29;20044;-70
2021/11/17 13:06:40;;;;;;;29.02;13.95;;;9.90;99.50;;;;;;4898499;29;20047;-69
2021/11/17 13:09:20;;;;;;;27.45;13.75;;;9.90;99.50;;;;;;4915312;29;20036;-69
2021/11/17 13:12:03;;;;;;;30.20;14.60;;;9.80;99.70;;;;;;4915564;29;20138;-70
2021/11/17 13:14:35;;;;;;;32.40;14.95;;;9.80;99.90;;;;;;4915440;29;20098;-69
2021/11/17 13:17:14;;;;;;;31.60;14.63;;;9.80;99.90;;;;;;4914947;29;20055;-69
2021/11/17 13:19:45;;;;;;;32.85;14.40;;;9.80;99.80;;;;;;4914729;29;20079;-68
2021/11/17 13:22:39;;;;;;;27.92;14.75;;;9.80;99.90;;;;;;4914053;29;20430;-69
2021/11/17 13:25:21;;;;;;;28.02;13.68;;;9.80;99.80;;;;;;4913601;29;20028;-69
2021/11/17 13:27:49;;;;;;;32.28;15.15;;;9.80;99.80;;;;;;4915035;29;20115;-68
2021/11/17 13:30:18;;;;;;;29.58;14.82;;;9.90;99.90;;;;;;4914871;29;20052;-70
2021/11/17 13:32:47;;;;;;;33.00;14.60;;;9.80;99.90;;;;;;4915240;29;20046;-70
2021/11/17 13:35:35;;;;;;;31.85;14.75;;;9.90;99.90;;;;;;4915489;29;20108;-71
2021/11/17 13:38:12;;;;;;;28.77;13.68;;;9.90;99.90;;;;;;4915006;29;20043;-71
2021/11/17 13:40:39;;;;;;;29.85;14.15;;;9.90;99.80;;;;;;4915111;29;20044;-71
2021/11/17 13:43:07;;;;;;;36.00;15.73;;;9.90;99.60;;;;;;4914731;29;20119;-71
2021/11/17 13:45:33;;;;;;;28.42;14.80;;;10.00;99.10;;;;;;4915018;29;20055;-71
2021/11/17 13:47:59;;;;;;;29.60;15.18;;;10.00;99.20;;;;;;4914727;29;20063;-71
2021/11/17 13:50:30;;;;;;;27.77;11.88;;;10.00;99.20;;;;;;4915128;29;20076;-70
2021/11/17 13:52:57;;;;;;;30.90;13.90;;;10.00;99.40;;;;;;4914530;29;20048;-71
2021/11/17 13:55:26;;;;;;;25.95;13.68;;;9.90;99.60;;;;;;4913700;29;20111;-71
2021/11/17 13:57:52;;;;;;;32.25;15.23;;;10.00;99.10;;;;;;4914559;29;20125;-71
2021/11/17 14:00:20;;;;;;;26.40;13.07;;;10.10;99.10;;;;;;4914588;29;20059;-70
2021/11/17 14:02:47;;;;;;;26.58;13.68;;;10.10;99.00;;;;;;4913895;29;20127;-71
2021/11/17 14:05:15;;;;;;;27.50;13.32;;;10.10;99.10;;;;;;4898053;29;20520;-71
2021/11/17 14:07:42;;;;;;;28.52;12.48;;;10.20;99.00;;;;;;4914336;29;20594;-70
2021/11/17 14:10:09;;;;;;;26.25;12.82;;;10.20;98.90;;;;;;4914316;29;20143;-71
2021/11/17 14:12:35;;;;;;;25.23;12.50;;;10.30;98.90;;;;;;4914201;29;20035;-70
2021/11/17 14:15:01;;;;;;;24.67;12.23;;;10.40;99.00;;;;;;4914284;29;20073;-71
2021/11/17 14:17:27;;;;;;;20.48;11.13;;;10.30;99.00;;;;;;4914527;29;20127;-71
2021/11/17 14:19:53;;;;;;;24.25;11.07;;;10.30;98.90;;;;;;4914452;29;20089;-71
2021/11/17 14:22:19;;;;;;;23.23;10.90;;;10.30;98.80;;;;;;4914234;29;20431;-71
2021/11/17 14:24:45;;;;;;;20.08;10.77;;;10.30;98.80;;;;;;4913189;29;20181;-71
2021/11/17 14:27:13;;;;;;;22.48;10.90;;;10.30;98.70;;;;;;4914194;29;20123;-72
2021/11/17 14:29:58;;;;;;;24.17;10.70;;;10.30;98.60;;;;;;4919957;29;20028;-70
2021/11/17 14:32:38;;;;;;;22.10;11.82;;;10.30;98.60;;;;;;4933460;29;20043;-70
2021/11/17 14:35:05;;;;;;;32.78;14.93;;;10.20;98.80;;;;;;4915980;29;20032;-70
2021/11/17 14:37:31;;;;;;;24.38;11.93;;;10.30;98.90;;;;;;4933540;29;20036;-71
2021/11/17 14:39:56;;;;;;;24.27;11.23;;;10.30;98.70;;;;;;4934250;29;20043;-70
2021/11/17 14:42:23;;;;;;;23.58;10.52;;;10.20;98.70;;;;;;4936856;29;20031;-72
2021/11/17 14:44:49;;;;;;;19.65;11.13;;;10.10;98.90;;;;;;4936645;29;20111;-71
2021/11/17 14:47:15;;;;;;;23.85;11.15;;;10.30;98.90;;;;;;4919764;29;20036;-70
2021/11/17 14:49:43;;;;;;;28.60;12.18;;;10.20;98.80;;;;;;4937033;29;20046;-71
2021/11/17 14:52:15;;;;;;;27.05;12.23;;;10.20;98.90;;;;;;4936925;29;20059;-71
2021/11/17 14:54:42;;;;;;;22.67;11.88;;;10.20;98.80;;;;;;4936707;29;20035;-70
2021/11/17 14:57:08;;;;;;;25.20;11.55;;;10.30;98.90;;;;;;4936809;29;20465;-71
2021/11/17 14:59:34;;;;;;;27.30;12.90;;;10.30;98.70;;;;;;4936930;29;20106;-71
2021/11/17 15:02:01;;;;;;;26.05;12.20;;;10.20;98.70;;;;;;4919315;29;20115;-71
2021/11/17 15:04:26;;;;;;;27.15;13.18;;;10.20;98.80;;;;;;4918709;29;20139;-71
2021/11/17 15:06:52;;;;;;;28.90;12.20;;;10.10;98.70;;;;;;4901157;29;20115;-71
2021/11/17 15:09:19;;;;;;;31.23;13.98;;;10.10;98.80;;;;;;4917724;29;20043;-71
2021/11/17 15:11:55;;;;;;;35.70;14.18;;;10.10;98.90;;;;;;4917838;29;20124;-70
2021/11/17 15:14:24;;;;;;;30.65;13.48;;;10.10;98.80;;;;;;4900446;29;20478;-70
2021/11/17 15:16:50;;;;;;;30.42;14.18;;;10.10;98.80;;;;;;4917360;29;20044;-71
2021/11/17 15:19:17;;;;;;;35.30;14.02;;;10.00;98.80;;;;;;4917173;29;20041;-71
2021/11/17 15:21:42;;;;;;;31.80;14.73;;;10.00;98.90;;;;;;4917495;29;20036;-71
2021/11/17 15:24:08;;;;;;;31.88;15.00;;;10.10;98.90;;;;;;4917735;29;20067;-72
2021/11/17 15:27:11;;;;;;;30.42;15.00;;;10.10;98.80;;;;;;4917863;29;20065;-71
2021/11/17 15:29:40;;;;;;;31.15;14.80;;;10.20;98.70;;;;;;4917434;29;20099;-72
2021/11/17 15:32:06;;;;;;;35.70;14.63;;;10.10;98.80;;;;;;4917859;29;20123;-70
2021/11/17 15:34:32;;;;;;;36.85;14.45;;;10.20;98.80;;;;;;4917113;29;20040;-70
2021/11/17 15:36:59;;;;;;;28.65;13.90;;;10.30;98.80;;;;;;4917208;29;20048;-71
2021/11/17 15:39:25;;;;;;;42.22;16.00;;;10.20;98.70;;;;;;4917199;29;20032;-71
2021/11/17 15:41:51;;;;;;;34.05;13.57;;;10.20;98.70;;;;;;4916866;29;20035;-72
2021/11/17 15:44:17;;;;;;;31.23;13.65;;;10.30;98.70;;;;;;4900677;29;20123;-71
2021/11/17 15:47:02;;;;;;;32.38;14.50;;;10.30;98.60;;;;;;4916800;29;20036;-72